createdAt,value
2022-08-03T00:00:40.305Z,17.67
2022-08-03T00:03:08.861Z,17.65
2022-08-03T00:05:39.839Z,17.60
2022-08-03T00:08:08.740Z,17.54
2022-08-03T00:10:38.239Z,17.51
2022-08-03T00:13:06.919Z,17.49
2022-08-03T00:15:35.608Z,17.47
2022-08-03T00:18:04.309Z,17.45
2022-08-03T00:20:33.200Z,17.45
2022-08-03T00:23:03.243Z,17.44
2022-08-03T00:25:31.629Z,17.41
2022-08-03T00:28:00.339Z,17.39
2022-08-03T00:30:29.399Z,17.35
2022-08-03T00:33:01.459Z,17.34
2022-08-03T00:35:37.008Z,17.32
2022-08-03T00:38:14.631Z,17.28
2022-08-03T00:40:43.000Z,17.27
2022-08-03T00:43:11.946Z,17.23
2022-08-03T00:45:42.981Z,17.18
2022-08-03T00:48:29.427Z,17.18
2022-08-03T00:51:01.617Z,17.17
2022-08-03T00:53:31.895Z,17.14
2022-08-03T00:56:00.626Z,17.14
2022-08-03T00:58:29.084Z,17.14
2022-08-03T01:00:57.971Z,17.14
2022-08-03T01:03:26.837Z,17.15
2022-08-03T01:05:59.741Z,17.16
2022-08-03T01:08:37.058Z,17.16
2022-08-03T01:11:09.567Z,17.13
2022-08-03T01:14:01.582Z,17.15
2022-08-03T01:16:36.554Z,17.13
2022-08-03T01:19:17.770Z,17.10
2022-08-03T01:22:04.170Z,17.05
2022-08-03T01:24:42.162Z,16.98
2022-08-03T01:27:13.152Z,16.93
2022-08-03T01:30:00.251Z,16.89
2022-08-03T01:32:58.359Z,16.83
2022-08-03T01:35:30.814Z,16.78
2022-08-03T01:38:01.496Z,16.74
2022-08-03T01:40:32.258Z,16.71
2022-08-03T01:43:03.556Z,16.67
2022-08-03T01:45:34.491Z,16.62
2022-08-03T01:48:04.346Z,16.58
2022-08-03T01:50:34.488Z,16.52
2022-08-03T01:53:03.649Z,16.49
2022-08-03T01:55:33.415Z,16.46
2022-08-03T01:58:06.841Z,16.43
2022-08-03T02:00:38.461Z,16.40
2022-08-03T02:03:07.598Z,16.39
2022-08-03T02:05:37.201Z,16.39
2022-08-03T02:08:07.177Z,16.38
2022-08-03T02:10:36.382Z,16.38
2022-08-03T02:13:07.757Z,16.38
2022-08-03T02:15:39.839Z,16.35
2022-08-03T02:18:10.947Z,16.34
2022-08-03T02:20:40.415Z,16.34
2022-08-03T02:23:09.428Z,16.35
2022-08-03T02:25:42.526Z,16.33
2022-08-03T02:28:12.985Z,16.30
2022-08-03T02:30:44.592Z,16.26
2022-08-03T02:33:18.513Z,16.25
2022-08-03T02:35:48.813Z,16.20
2022-08-03T02:38:21.700Z,16.19
2022-08-03T02:40:51.588Z,16.18
2022-08-03T02:43:22.116Z,16.16
2022-08-03T02:45:52.938Z,16.16
2022-08-03T02:48:24.917Z,16.14
2022-08-03T02:50:54.763Z,16.14
2022-08-03T02:53:24.010Z,16.15
2022-08-03T02:55:52.560Z,16.14
2022-08-03T02:58:22.437Z,16.14
2022-08-03T03:00:53.033Z,16.15
2022-08-03T03:03:22.554Z,16.18
2022-08-03T03:05:56.236Z,16.17
2022-08-03T03:08:28.590Z,16.17
2022-08-03T03:10:58.656Z,16.17
2022-08-03T03:13:28.902Z,16.17
2022-08-03T03:16:02.384Z,16.19
2022-08-03T03:18:35.351Z,16.21
2022-08-03T03:21:05.584Z,16.25
2022-08-03T03:23:37.308Z,16.27
2022-08-03T03:26:06.620Z,16.32
2022-08-03T03:28:37.082Z,16.35
2022-08-03T03:31:07.788Z,16.39
2022-08-03T03:33:37.296Z,16.43
2022-08-03T03:36:07.124Z,16.51
2022-08-03T03:38:36.013Z,16.61
2022-08-03T03:41:06.005Z,16.71
2022-08-03T03:43:34.519Z,16.84
2022-08-03T03:46:03.509Z,16.96
2022-08-03T03:48:33.720Z,17.05
2022-08-03T03:51:02.746Z,17.13
2022-08-03T03:53:31.658Z,17.25
2022-08-03T03:56:02.889Z,17.37
2022-08-03T03:58:32.912Z,17.48
2022-08-03T04:01:02.097Z,17.58
2022-08-03T04:03:31.295Z,17.68
2022-08-03T04:06:18.824Z,17.79
2022-08-03T04:09:05.528Z,17.94
2022-08-03T04:11:40.160Z,18.17
2022-08-03T04:14:12.498Z,18.40
2022-08-03T04:16:44.076Z,18.56
2022-08-03T04:19:19.762Z,18.73
2022-08-03T04:21:57.314Z,18.92
2022-08-03T04:24:29.067Z,19.11
2022-08-03T04:26:58.958Z,19.19
2022-08-03T04:29:28.066Z,19.32
2022-08-03T04:31:57.408Z,19.38
2022-08-03T04:34:26.153Z,19.49
2022-08-03T04:37:02.227Z,19.63
2022-08-03T04:39:33.271Z,19.79
2022-08-03T04:42:07.519Z,20.01
2022-08-03T04:44:39.199Z,20.04
2022-08-03T04:47:08.345Z,19.91
2022-08-03T04:49:37.898Z,19.89
2022-08-03T04:52:10.226Z,19.85
2022-08-03T04:54:42.849Z,19.55
2022-08-03T04:57:23.024Z,19.32
2022-08-03T05:00:02.730Z,19.00
2022-08-03T05:02:32.441Z,19.06
2022-08-03T05:05:01.894Z,19.32
2022-08-03T05:07:35.787Z,19.51
2022-08-03T05:10:16.186Z,19.59
2022-08-03T05:12:46.867Z,19.73
2022-08-03T05:15:16.035Z,19.89
2022-08-03T05:17:45.092Z,20.05
2022-08-03T05:20:18.832Z,20.20
2022-08-03T05:22:49.449Z,20.30
2022-08-03T05:25:20.559Z,20.36
2022-08-03T05:27:50.289Z,20.45
2022-08-03T05:30:30.541Z,20.48
2022-08-03T05:33:03.735Z,20.58
2022-08-03T05:36:02.560Z,20.75
2022-08-03T05:38:28.236Z,20.92
2022-08-03T05:41:22.096Z,20.97
2022-08-03T05:43:46.746Z,21.06
2022-08-03T05:46:15.514Z,21.05
2022-08-03T05:48:44.439Z,21.06
2022-08-03T05:51:13.719Z,21.03
2022-08-03T05:53:44.441Z,21.14
2022-08-03T05:56:16.354Z,21.41
2022-08-03T05:58:47.230Z,21.62
2022-08-03T06:01:16.998Z,21.54
2022-08-03T06:03:45.911Z,21.38
2022-08-03T06:06:15.295Z,21.12
2022-08-03T06:08:47.011Z,21.11
2022-08-03T06:11:16.647Z,21.16
2022-08-03T06:13:45.107Z,21.38
2022-08-03T06:16:13.901Z,21.45
2022-08-03T06:18:42.682Z,21.66
2022-08-03T06:21:15.654Z,21.90
2022-08-03T06:23:53.211Z,22.09
2022-08-03T06:26:28.632Z,22.36
2022-08-03T06:28:57.086Z,22.54
2022-08-03T06:31:32.453Z,22.55
2022-08-03T06:34:33.789Z,22.60
2022-08-03T06:36:58.509Z,22.43
2022-08-03T06:39:32.388Z,22.09
2022-08-03T06:42:01.310Z,22.23
2022-08-03T06:44:29.998Z,22.57
2022-08-03T06:46:58.830Z,23.04
2022-08-03T06:49:27.924Z,23.24
2022-08-03T06:52:05.059Z,23.48
2022-08-03T06:54:39.918Z,23.84
2022-08-03T06:57:11.708Z,24.33
2022-08-03T07:00:08.445Z,24.55
2022-08-03T07:02:29.846Z,24.78
2022-08-03T07:04:58.836Z,24.63
2022-08-03T07:07:27.254Z,24.93
2022-08-03T07:09:58.345Z,25.46
2022-08-03T07:12:28.706Z,25.82
2022-08-03T07:15:00.918Z,25.86
2022-08-03T07:17:31.678Z,26.34
2022-08-03T07:20:01.447Z,26.49
2022-08-03T07:22:30.220Z,26.72
2022-08-03T07:25:00.713Z,26.89
2022-08-03T07:27:30.552Z,27.25
2022-08-03T07:30:00.466Z,27.26
2022-08-03T07:32:31.699Z,27.53
2022-08-03T07:35:01.439Z,27.79
2022-08-03T07:37:30.903Z,28.08
2022-08-03T07:40:01.350Z,28.74
2022-08-03T07:42:31.039Z,29.13
2022-08-03T07:45:00.205Z,29.01
2022-08-03T07:47:34.871Z,29.09
2022-08-03T07:50:05.551Z,29.38
2022-08-03T07:52:53.209Z,29.76
2022-08-03T07:55:25.164Z,29.98
2022-08-03T07:58:05.359Z,30.87
2022-08-03T08:00:34.212Z,31.53
2022-08-03T08:03:03.312Z,31.86
2022-08-03T08:05:36.786Z,32.03
2022-08-03T08:08:06.327Z,31.92
2022-08-03T08:10:36.411Z,31.26
2022-08-03T08:13:05.653Z,30.53
2022-08-03T08:15:34.469Z,30.23
2022-08-03T08:18:03.585Z,30.04
2022-08-03T08:20:37.904Z,29.88
2022-08-03T08:23:13.910Z,29.12
2022-08-03T08:25:58.056Z,28.28
2022-08-03T08:28:32.698Z,28.11
2022-08-03T08:31:03.002Z,27.86
2022-08-03T08:33:48.354Z,27.56
2022-08-03T08:36:21.405Z,27.26
2022-08-03T08:38:50.247Z,26.96
2022-08-03T08:41:20.497Z,27.21
2022-08-03T08:43:48.911Z,27.63
2022-08-03T08:46:22.736Z,28.37
2022-08-03T08:48:53.722Z,28.92
2022-08-03T08:51:23.529Z,29.40
2022-08-03T08:54:12.806Z,29.61
2022-08-03T08:56:43.456Z,29.94
2022-08-03T08:59:12.425Z,30.26
2022-08-03T09:01:40.944Z,30.48
2022-08-03T09:04:11.060Z,30.53
2022-08-03T09:06:39.834Z,30.63
2022-08-03T09:09:09.454Z,30.97
2022-08-03T09:12:20.068Z,31.11
2022-08-03T09:15:07.358Z,31.55
2022-08-03T09:17:41.674Z,31.49
2022-08-03T09:20:11.354Z,31.58
2022-08-03T09:22:53.754Z,31.77
2022-08-03T09:25:29.190Z,31.85
2022-08-03T09:28:06.138Z,32.01
2022-08-03T09:30:35.477Z,31.84
2022-08-03T09:33:05.475Z,31.92
2022-08-03T09:38:26.440Z,31.99
2022-08-03T09:40:59.955Z,32.54
2022-08-03T09:43:47.344Z,31.71
2022-08-03T09:46:16.137Z,31.84
2022-08-03T09:48:44.900Z,31.23
2022-08-03T09:51:33.358Z,31.69
2022-08-03T09:54:09.580Z,33.51
2022-08-03T09:56:45.219Z,35.69
2022-08-03T09:59:26.654Z,38.63
2022-08-03T10:01:56.074Z,41.70
2022-08-03T10:04:25.122Z,43.89
2022-08-03T10:07:05.648Z,46.06
2022-08-03T10:09:34.766Z,48.08
2022-08-03T10:12:10.898Z,49.03
2022-08-03T10:14:43.567Z,48.33
2022-08-03T10:17:12.538Z,47.69
2022-08-03T10:19:41.253Z,44.74
2022-08-03T10:22:12.221Z,39.00
2022-08-03T10:24:41.908Z,35.26
2022-08-03T10:27:11.530Z,34.32
2022-08-03T10:29:47.331Z,35.59
2022-08-03T10:32:20.549Z,36.37
2022-08-03T10:35:00.230Z,38.23
2022-08-03T10:37:32.150Z,41.32
2022-08-03T10:40:02.228Z,44.11
2022-08-03T10:42:32.511Z,45.20
2022-08-03T10:45:06.965Z,47.64
2022-08-03T10:47:36.785Z,48.81
2022-08-03T10:50:06.254Z,47.50
2022-08-03T10:52:36.087Z,48.85
2022-08-03T10:55:51.954Z,48.14
2022-08-03T10:58:57.563Z,45.99
2022-08-03T11:02:00.696Z,41.89
2022-08-03T11:04:30.880Z,44.54
2022-08-03T11:07:21.130Z,42.34
2022-08-03T11:09:51.232Z,45.17
2022-08-03T11:12:30.036Z,47.98
2022-08-03T11:15:02.546Z,48.99
2022-08-03T11:17:33.830Z,48.52
2022-08-03T11:20:15.939Z,46.64
2022-08-03T11:22:51.486Z,45.35
2022-08-03T11:25:54.823Z,45.52
2022-08-03T11:28:27.203Z,46.35
2022-08-03T11:30:56.264Z,44.87
2022-08-03T11:33:32.909Z,42.25
2022-08-03T11:36:03.029Z,41.44
2022-08-03T11:38:31.745Z,42.40
2022-08-03T11:41:02.727Z,42.88
2022-08-03T11:43:47.316Z,38.83
2022-08-03T11:46:29.453Z,37.93
2022-08-03T11:49:10.265Z,41.41
2022-08-03T11:51:40.494Z,44.10
2022-08-03T11:54:09.701Z,42.12
2022-08-03T11:56:47.957Z,43.12
2022-08-03T11:59:21.766Z,46.67
2022-08-03T12:01:51.327Z,48.72
2022-08-03T12:04:21.227Z,46.81
2022-08-03T12:07:05.990Z,43.09
2022-08-03T12:09:36.367Z,42.97
2022-08-03T12:12:05.716Z,44.39
2022-08-03T12:14:50.842Z,47.06
2022-08-03T12:17:21.104Z,50.39
2022-08-03T12:19:50.917Z,52.17
2022-08-03T12:22:32.917Z,52.33
2022-08-03T12:25:01.899Z,52.47
2022-08-03T12:27:30.776Z,49.00
2022-08-03T12:30:02.114Z,48.55
2022-08-03T12:32:31.466Z,49.53
2022-08-03T12:35:04.516Z,49.42
2022-08-03T12:37:33.674Z,49.53
2022-08-03T12:40:10.081Z,48.41
2022-08-03T12:42:41.081Z,49.81
2022-08-03T12:45:26.592Z,48.09
2022-08-03T12:47:57.245Z,45.37
2022-08-03T12:50:28.825Z,44.00
2022-08-03T12:52:57.671Z,41.24
2022-08-03T12:55:57.116Z,43.57
2022-08-03T12:58:34.177Z,45.51
2022-08-03T13:01:09.239Z,44.42
2022-08-03T13:03:45.744Z,45.10
2022-08-03T13:06:20.892Z,43.41
2022-08-03T13:08:51.568Z,44.59
2022-08-03T13:11:57.316Z,43.77
2022-08-03T13:14:16.838Z,42.04
2022-08-03T13:16:49.681Z,39.83
2022-08-03T13:19:18.550Z,37.98
2022-08-03T13:21:53.524Z,36.78
2022-08-03T13:24:34.175Z,37.27
2022-08-03T13:27:22.034Z,38.35
2022-08-03T13:29:54.383Z,38.90
2022-08-03T13:32:23.431Z,40.92
2022-08-03T13:34:52.103Z,42.74
2022-08-03T13:37:22.773Z,43.36
2022-08-03T13:39:57.313Z,44.41
2022-08-03T13:42:30.638Z,43.01
2022-08-03T13:44:59.656Z,43.34
2022-08-03T13:47:28.866Z,43.02
2022-08-03T13:50:00.734Z,43.27
2022-08-03T13:52:36.355Z,44.24
2022-08-03T13:55:06.753Z,44.06
2022-08-03T13:58:04.030Z,44.30
2022-08-03T14:00:28.993Z,42.31
2022-08-03T14:03:13.750Z,42.22
2022-08-03T14:05:44.453Z,42.18
2022-08-03T14:08:15.153Z,42.55
2022-08-03T14:10:45.393Z,42.49
2022-08-03T14:13:17.817Z,41.74
2022-08-03T14:15:50.195Z,37.82
2022-08-03T14:18:28.346Z,36.35
2022-08-03T14:21:04.816Z,36.02
2022-08-03T14:23:37.638Z,37.40
2022-08-03T14:26:07.183Z,36.25
2022-08-03T14:28:35.758Z,37.57
2022-08-03T14:31:15.250Z,35.97
2022-08-03T14:33:54.239Z,34.58
2022-08-03T14:36:22.918Z,35.67
2022-08-03T14:38:53.186Z,36.42
2022-08-03T14:41:22.633Z,36.92
2022-08-03T14:44:01.669Z,37.19
2022-08-03T14:46:32.264Z,37.19
2022-08-03T14:50:31.145Z,37.41
2022-08-03T14:51:51.480Z,37.21
2022-08-03T14:54:24.422Z,36.09
2022-08-03T14:56:53.377Z,35.12
2022-08-03T14:59:22.113Z,34.13
2022-08-03T15:02:02.239Z,33.76
2022-08-03T15:04:33.038Z,33.99
2022-08-03T15:07:01.820Z,34.97
2022-08-03T15:09:32.064Z,36.12
2022-08-03T15:12:01.152Z,35.62
2022-08-03T15:14:33.202Z,34.21
2022-08-03T15:17:03.653Z,32.66
2022-08-03T15:20:03.977Z,32.06
2022-08-03T15:22:25.267Z,32.76
2022-08-03T15:26:28.906Z,33.67
2022-08-03T15:28:03.960Z,34.47
2022-08-03T15:30:36.984Z,34.74
2022-08-03T15:33:06.561Z,34.57
2022-08-03T15:35:35.207Z,34.12
2022-08-03T15:38:08.695Z,34.17
2022-08-03T15:40:40.647Z,33.81
2022-08-03T15:43:09.858Z,33.08
2022-08-03T15:45:40.697Z,33.09
2022-08-03T15:48:10.956Z,33.87
2022-08-03T15:50:39.711Z,35.10
2022-08-03T15:53:09.487Z,36.31
2022-08-03T15:55:40.560Z,36.64
2022-08-03T15:59:09.822Z,35.85
2022-08-03T16:00:58.616Z,34.61
2022-08-03T16:03:28.529Z,34.95
2022-08-03T16:05:57.468Z,36.15
2022-08-03T16:08:26.261Z,36.95
2022-08-03T16:10:56.125Z,38.07
2022-08-03T16:14:05.578Z,39.03
2022-08-03T16:16:16.944Z,39.38
2022-08-03T16:18:45.817Z,39.81
2022-08-03T16:21:16.995Z,40.50
2022-08-03T16:23:51.208Z,41.13
2022-08-03T16:26:21.610Z,41.82
2022-08-03T16:28:50.053Z,41.92
2022-08-03T16:31:21.060Z,41.35
2022-08-03T16:33:49.901Z,40.22
2022-08-03T16:36:18.645Z,40.11
2022-08-03T16:38:47.553Z,39.71
2022-08-03T16:41:16.270Z,39.52
2022-08-03T16:43:48.626Z,39.51
2022-08-03T16:46:18.927Z,39.59
2022-08-03T16:48:47.627Z,39.21
2022-08-03T16:51:16.402Z,37.96
2022-08-03T16:54:07.774Z,38.64
2022-08-03T16:56:34.147Z,39.37
2022-08-03T16:59:06.600Z,39.65
2022-08-03T17:01:37.661Z,40.01
2022-08-03T17:04:06.984Z,40.62
2022-08-03T17:06:44.814Z,40.98
2022-08-03T17:09:18.163Z,40.75
2022-08-03T17:11:50.453Z,40.52
2022-08-03T17:14:28.262Z,40.55
2022-08-03T17:17:01.491Z,40.42
2022-08-03T17:19:31.368Z,40.15
2022-08-03T17:22:04.102Z,39.25
2022-08-03T17:24:35.072Z,39.03
2022-08-03T17:27:08.684Z,39.16
2022-08-03T17:29:45.335Z,39.23
2022-08-03T17:32:21.439Z,38.86
2022-08-03T17:34:50.318Z,38.11
2022-08-03T17:37:27.312Z,37.11
2022-08-03T17:40:12.632Z,35.12
2022-08-03T17:42:51.068Z,33.53
2022-08-03T17:45:21.947Z,32.11
2022-08-03T17:47:57.189Z,31.08
2022-08-03T17:50:45.361Z,30.14
2022-08-03T17:53:23.831Z,29.33
2022-08-03T17:56:04.927Z,28.73
2022-08-03T17:58:55.027Z,28.25
2022-08-03T18:01:59.499Z,27.91
2022-08-03T18:04:35.319Z,27.62
2022-08-03T18:07:12.732Z,27.36
2022-08-03T18:10:03.451Z,27.06
2022-08-03T18:12:51.914Z,26.74
2022-08-03T18:15:26.635Z,26.49
2022-08-03T18:18:10.873Z,26.25
2022-08-03T18:20:42.682Z,26.01
2022-08-03T18:23:25.154Z,25.82
2022-08-03T18:26:06.946Z,25.66
2022-08-03T18:28:38.490Z,25.48
2022-08-03T18:31:11.917Z,25.36
2022-08-03T18:36:32.018Z,25.21
2022-08-03T18:39:04.094Z,25.05
2022-08-03T18:41:35.083Z,24.90
2022-08-03T18:47:07.483Z,24.49
2022-08-03T18:49:54.564Z,24.33
2022-08-03T18:52:26.998Z,24.33
2022-08-03T18:55:07.315Z,24.34
2022-08-03T18:57:46.379Z,24.33
2022-08-03T19:00:23.817Z,24.27
2022-08-03T19:02:58.902Z,24.23
2022-08-03T19:05:56.227Z,24.15
2022-08-03T19:08:40.918Z,24.02
2022-08-03T19:11:15.429Z,23.92
2022-08-03T19:13:50.452Z,23.88
2022-08-03T19:16:23.136Z,23.83
2022-08-03T19:18:55.890Z,23.74
2022-08-03T19:21:26.701Z,23.62
2022-08-03T19:23:56.780Z,23.48
2022-08-03T19:26:31.191Z,23.43
2022-08-03T19:29:00.412Z,23.38
2022-08-03T19:31:35.037Z,23.31
2022-08-03T19:34:04.146Z,23.26
2022-08-03T19:36:40.578Z,23.24
2022-08-03T19:39:14.386Z,23.26
2022-08-03T19:41:43.996Z,23.22
2022-08-03T19:44:25.016Z,23.18
2022-08-03T19:46:56.126Z,23.13
2022-08-03T19:49:59.968Z,23.07
2022-08-03T19:52:20.569Z,23.09
2022-08-03T19:54:54.624Z,23.08
2022-08-03T19:57:25.360Z,23.08
2022-08-03T19:59:55.808Z,23.05
2022-08-03T20:02:26.526Z,23.04
2022-08-03T20:05:00.028Z,23.01
2022-08-03T20:07:32.949Z,22.99
2022-08-03T20:10:02.999Z,22.95
2022-08-03T20:12:38.717Z,22.94
2022-08-03T20:15:09.319Z,22.91
2022-08-03T20:17:54.811Z,22.91
2022-08-03T20:20:28.560Z,22.90
2022-08-03T20:23:01.109Z,22.87
2022-08-03T20:25:37.983Z,22.81
2022-08-03T20:28:13.890Z,22.77
2022-08-03T20:30:47.520Z,22.70
2022-08-03T20:33:18.697Z,22.67
2022-08-03T20:35:49.848Z,22.64
2022-08-03T20:38:27.031Z,22.59
2022-08-03T20:40:56.432Z,22.53
2022-08-03T20:43:28.287Z,22.49
2022-08-03T20:45:59.187Z,22.45
2022-08-03T20:48:30.337Z,22.42
2022-08-03T20:50:59.563Z,22.34
2022-08-03T20:53:57.082Z,22.28
2022-08-03T20:56:18.619Z,22.24
2022-08-03T20:58:50.608Z,22.16
2022-08-03T21:01:27.907Z,22.12
2022-08-03T21:04:07.178Z,22.11
2022-08-03T21:10:46.692Z,22.14
2022-08-03T21:12:58.399Z,25.30
2022-08-03T21:13:08.187Z,24.70
2022-08-03T21:16:12.178Z,22.04
2022-08-03T21:18:44.933Z,21.97
2022-08-03T21:21:16.138Z,21.91
2022-08-03T21:23:48.856Z,21.85
2022-08-03T21:26:21.245Z,21.82
2022-08-03T21:28:50.643Z,21.78
2022-08-03T21:31:25.438Z,21.73
2022-08-03T21:33:56.711Z,21.70
2022-08-03T21:36:28.592Z,21.68
2022-08-03T21:38:58.895Z,21.63
2022-08-03T21:41:30.151Z,21.59
2022-08-03T21:43:58.627Z,21.44
2022-08-03T21:46:28.933Z,21.36
2022-08-03T21:49:52.053Z,21.30
2022-08-03T21:51:50.851Z,21.20
2022-08-03T21:54:21.886Z,21.13
2022-08-03T21:56:52.732Z,21.05
2022-08-03T21:59:21.846Z,21.01
2022-08-03T22:01:51.407Z,20.96
2022-08-03T22:04:55.552Z,20.91
2022-08-03T22:07:15.788Z,20.82
2022-08-03T22:09:51.192Z,20.78
2022-08-03T22:12:24.381Z,20.71
2022-08-03T22:15:00.784Z,20.67
2022-08-03T22:17:55.621Z,20.63
2022-08-03T22:20:21.005Z,20.57
2022-08-03T22:22:55.331Z,20.53
2022-08-03T22:25:30.952Z,20.47
2022-08-03T22:28:02.708Z,20.44
2022-08-03T22:30:33.229Z,20.38
2022-08-03T22:33:04.494Z,20.36
2022-08-03T22:35:44.392Z,20.32
2022-08-03T22:38:17.118Z,20.25
2022-08-03T22:40:46.185Z,20.17
2022-08-03T22:43:16.604Z,20.10
2022-08-03T22:46:09.023Z,20.04
2022-08-03T22:48:35.598Z,20.00
2022-08-03T22:51:09.961Z,19.95
2022-08-03T22:53:40.127Z,19.89
2022-08-03T22:56:09.428Z,19.83
2022-08-03T22:58:39.241Z,19.77
2022-08-03T23:01:09.312Z,19.72
2022-08-03T23:03:58.843Z,19.68
2022-08-03T23:06:34.536Z,19.64
2022-08-03T23:09:05.735Z,19.59
2022-08-03T23:11:37.492Z,19.54
2022-08-03T23:14:15.218Z,19.47
2022-08-03T23:16:45.084Z,19.43
2022-08-03T23:19:17.234Z,19.39
2022-08-03T23:22:02.944Z,19.34
2022-08-03T23:24:35.982Z,19.26
2022-08-03T23:27:05.552Z,19.19
2022-08-03T23:29:37.579Z,19.13
2022-08-03T23:32:07.446Z,19.08
2022-08-03T23:34:53.475Z,19.04
2022-08-03T23:37:22.354Z,19.02
2022-08-03T23:39:51.176Z,18.97
2022-08-03T23:42:21.567Z,18.95
2022-08-03T23:44:52.995Z,18.92
2022-08-03T23:47:21.846Z,18.89
2022-08-03T23:49:50.369Z,18.85
2022-08-03T23:52:27.377Z,18.82
2022-08-03T23:55:14.978Z,18.75
2022-08-03T23:57:59.759Z,18.72
